Newmarket, United Kingdom
Current Conditions -  °F | °C
As of 10:58 PM on Monday 24 Nov 2014 (Local Time) from EGUN Reporting Station
Haze Haze  
Wind Chill: 32°   Ceiling: Unl
Heat Index: 32°   Visibility: 0.75mi
Dew Point: 30°   Wind: 2mph
Humidity: 93%   Direction: 140°SE
Pressure: 30.34"   Gusts: NA
Location:  52.24°N, 0.4°E
Report Text: EGUN 242258Z AUTO 14002KT 1200 R29/0650 BR CLR 00/M01 A3034 RMK AO2 VIS 1200V9000 SLP278
Loading
Personal Weather Stations






























Interactive Weather Map New forecast layout! Learn more

10-Day Weather Forecast

Advertisements
Track Severe Weather on mobile